sensor_id;sensor_type;location;lat;lon;timestamp;temperature;humidity
73750;SHT30;62058;48.406;-4.514;2022-12-10T00:00:53;2.77;78.69
73750;SHT30;62058;48.406;-4.514;2022-12-10T00:03:18;2.73;78.41
73750;SHT30;62058;48.406;-4.514;2022-12-10T00:05:44;2.70;78.47
73750;SHT30;62058;48.406;-4.514;2022-12-10T00:08:09;2.65;78.50
73750;SHT30;62058;48.406;-4.514;2022-12-10T00:10:39;2.67;78.65
73750;SHT30;62058;48.406;-4.514;2022-12-10T00:13:04;2.62;78.31
73750;SHT30;62058;48.406;-4.514;2022-12-10T00:15:29;2.64;78.69
73750;SHT30;62058;48.406;-4.514;2022-12-10T00:17:55;2.60;78.69
73750;SHT30;62058;48.406;-4.514;2022-12-10T00:20:20;2.58;78.50
73750;SHT30;62058;48.406;-4.514;2022-12-10T00:22:45;2.57;78.68
73750;SHT30;62058;48.406;-4.514;2022-12-10T00:25:11;2.54;78.27
73750;SHT30;62058;48.406;-4.514;2022-12-10T00:27:36;2.50;78.64
73750;SHT30;62058;48.406;-4.514;2022-12-10T00:30:02;2.50;78.48
73750;SHT30;62058;48.406;-4.514;2022-12-10T00:32:28;2.47;78.76
73750;SHT30;62058;48.406;-4.514;2022-12-10T00:34:53;2.47;78.52
73750;SHT30;62058;48.406;-4.514;2022-12-10T00:37:18;2.48;78.71
73750;SHT30;62058;48.406;-4.514;2022-12-10T00:39:44;2.45;78.97
73750;SHT30;62058;48.406;-4.514;2022-12-10T00:42:09;2.44;78.82
73750;SHT30;62058;48.406;-4.514;2022-12-10T00:44:34;2.44;78.82
73750;SHT30;62058;48.406;-4.514;2022-12-10T00:47:00;2.38;78.71
73750;SHT30;62058;48.406;-4.514;2022-12-10T00:49:25;2.38;78.82
73750;SHT30;62058;48.406;-4.514;2022-12-10T00:51:50;2.37;78.04
73750;SHT30;62058;48.406;-4.514;2022-12-10T00:54:16;2.38;78.17
73750;SHT30;62058;48.406;-4.514;2022-12-10T00:56:42;2.32;78.41
73750;SHT30;62058;48.406;-4.514;2022-12-10T00:59:07;2.30;78.35
73750;SHT30;62058;48.406;-4.514;2022-12-10T01:01:36;2.30;78.67
73750;SHT30;62058;48.406;-4.514;2022-12-10T01:04:05;2.24;78.78
73750;SHT30;62058;48.406;-4.514;2022-12-10T01:06:40;2.22;78.76
73750;SHT30;62058;48.406;-4.514;2022-12-10T01:09:07;2.22;79.13
73750;SHT30;62058;48.406;-4.514;2022-12-10T01:11:37;2.16;78.90
73750;SHT30;62058;48.406;-4.514;2022-12-10T01:14:03;2.17;79.08
73750;SHT30;62058;48.406;-4.514;2022-12-10T01:16:29;2.20;78.77
73750;SHT30;62058;48.406;-4.514;2022-12-10T01:18:56;2.20;78.69
73750;SHT30;62058;48.406;-4.514;2022-12-10T01:21:22;2.19;78.58
73750;SHT30;62058;48.406;-4.514;2022-12-10T01:23:48;2.17;78.30
73750;SHT30;62058;48.406;-4.514;2022-12-10T01:26:21;2.10;77.96
73750;SHT30;62058;48.406;-4.514;2022-12-10T01:28:47;2.09;78.20
73750;SHT30;62058;48.406;-4.514;2022-12-10T01:31:21;2.10;78.18
73750;SHT30;62058;48.406;-4.514;2022-12-10T01:33:48;2.10;78.19
73750;SHT30;62058;48.406;-4.514;2022-12-10T01:36:22;2.10;78.13
73750;SHT30;62058;48.406;-4.514;2022-12-10T01:38:48;2.07;78.22
73750;SHT30;62058;48.406;-4.514;2022-12-10T01:41:20;2.07;77.71
73750;SHT30;62058;48.406;-4.514;2022-12-10T01:46:43;2.02;78.05
73750;SHT30;62058;48.406;-4.514;2022-12-10T01:49:14;1.99;78.40
73750;SHT30;62058;48.406;-4.514;2022-12-10T01:51:41;1.95;78.51
73750;SHT30;62058;48.406;-4.514;2022-12-10T01:54:13;1.99;78.08
73750;SHT30;62058;48.406;-4.514;2022-12-10T01:56:43;1.98;78.19
73750;SHT30;62058;48.406;-4.514;2022-12-10T01:59:10;1.98;78.02
73750;SHT30;62058;48.406;-4.514;2022-12-10T02:06:44;1.93;77.65
73750;SHT30;62058;48.406;-4.514;2022-12-10T02:09:12;1.93;78.03
73750;SHT30;62058;48.406;-4.514;2022-12-10T02:11:45;1.93;78.08
73750;SHT30;62058;48.406;-4.514;2022-12-10T02:14:34;1.93;78.33
73750;SHT30;62058;48.406;-4.514;2022-12-10T02:17:05;1.95;77.96
73750;SHT30;62058;48.406;-4.514;2022-12-10T02:20:30;1.92;78.09
73750;SHT30;62058;48.406;-4.514;2022-12-10T02:22:35;1.89;78.22
73750;SHT30;62058;48.406;-4.514;2022-12-10T02:25:04;1.87;77.90
73750;SHT30;62058;48.406;-4.514;2022-12-10T02:30:31;1.85;77.46
73750;SHT30;62058;48.406;-4.514;2022-12-10T02:32:59;1.82;77.72
73750;SHT30;62058;48.406;-4.514;2022-12-10T02:35:29;1.79;77.54
73750;SHT30;62058;48.406;-4.514;2022-12-10T02:38:01;1.72;77.82
73750;SHT30;62058;48.406;-4.514;2022-12-10T02:40:31;1.71;77.73
73750;SHT30;62058;48.406;-4.514;2022-12-10T02:42:57;1.71;77.73
73750;SHT30;62058;48.406;-4.514;2022-12-10T02:45:26;1.71;77.99
73750;SHT30;62058;48.406;-4.514;2022-12-10T02:47:55;1.68;77.67
73750;SHT30;62058;48.406;-4.514;2022-12-10T02:50:22;1.66;77.69
73750;SHT30;62058;48.406;-4.514;2022-12-10T02:52:47;1.69;77.44
73750;SHT30;62058;48.406;-4.514;2022-12-10T02:55:14;1.63;77.63
73750;SHT30;62058;48.406;-4.514;2022-12-10T02:57:52;1.63;77.58
73750;SHT30;62058;48.406;-4.514;2022-12-10T03:00:24;1.62;77.55
73750;SHT30;62058;48.406;-4.514;2022-12-10T03:05:53;1.55;77.65
73750;SHT30;62058;48.406;-4.514;2022-12-10T03:08:24;1.54;77.56
73750;SHT30;62058;48.406;-4.514;2022-12-10T03:11:09;1.54;77.51
73750;SHT30;62058;48.406;-4.514;2022-12-10T03:13:40;1.48;77.50
73750;SHT30;62058;48.406;-4.514;2022-12-10T03:16:09;1.49;77.10
73750;SHT30;62058;48.406;-4.514;2022-12-10T03:18:35;1.47;77.25
73750;SHT30;62058;48.406;-4.514;2022-12-10T03:21:04;1.42;77.33
73750;SHT30;62058;48.406;-4.514;2022-12-10T03:23:33;1.42;77.29
73750;SHT30;62058;48.406;-4.514;2022-12-10T03:26:00;1.41;77.33
73750;SHT30;62058;48.406;-4.514;2022-12-10T03:28:27;1.37;77.43
73750;SHT30;62058;48.406;-4.514;2022-12-10T03:30:56;1.37;77.58
73750;SHT30;62058;48.406;-4.514;2022-12-10T03:33:22;1.37;77.53
73750;SHT30;62058;48.406;-4.514;2022-12-10T03:35:49;1.35;77.55
73750;SHT30;62058;48.406;-4.514;2022-12-10T03:38:15;1.38;77.13
73750;SHT30;62058;48.406;-4.514;2022-12-10T03:40:41;1.32;77.23
73750;SHT30;62058;48.406;-4.514;2022-12-10T03:43:06;1.32;77.23
73750;SHT30;62058;48.406;-4.514;2022-12-10T03:45:32;1.31;77.64
73750;SHT30;62058;48.406;-4.514;2022-12-10T03:47:57;1.28;77.73
73750;SHT30;62058;48.406;-4.514;2022-12-10T03:50:23;1.28;77.67
73750;SHT30;62058;48.406;-4.514;2022-12-10T03:52:48;1.30;77.37
73750;SHT30;62058;48.406;-4.514;2022-12-10T03:55:14;1.32;77.51
73750;SHT30;62058;48.406;-4.514;2022-12-10T03:57:39;1.32;77.71
73750;SHT30;62058;48.406;-4.514;2022-12-10T04:00:06;1.34;79.24
73750;SHT30;62058;48.406;-4.514;2022-12-10T04:02:31;1.32;79.42
73750;SHT30;62058;48.406;-4.514;2022-12-10T04:04:57;1.30;78.55
73750;SHT30;62058;48.406;-4.514;2022-12-10T04:07:22;1.31;77.77
73750;SHT30;62058;48.406;-4.514;2022-12-10T04:09:47;1.27;77.70
73750;SHT30;62058;48.406;-4.514;2022-12-10T04:12:13;1.31;78.63
73750;SHT30;62058;48.406;-4.514;2022-12-10T04:14:38;1.30;78.66
73750;SHT30;62058;48.406;-4.514;2022-12-10T04:17:33;1.31;78.50
73750;SHT30;62058;48.406;-4.514;2022-12-10T04:19:59;1.31;78.57
73750;SHT30;62058;48.406;-4.514;2022-12-10T04:22:24;1.31;78.45
73750;SHT30;62058;48.406;-4.514;2022-12-10T04:25:11;1.34;78.33
73750;SHT30;62058;48.406;-4.514;2022-12-10T04:27:55;1.34;78.05
73750;SHT30;62058;48.406;-4.514;2022-12-10T04:30:20;1.39;77.78
73750;SHT30;62058;48.406;-4.514;2022-12-10T04:32:46;1.38;77.79
73750;SHT30;62058;48.406;-4.514;2022-12-10T04:35:11;1.38;77.29
73750;SHT30;62058;48.406;-4.514;2022-12-10T04:37:36;1.38;77.29
73750;SHT30;62058;48.406;-4.514;2022-12-10T04:40:02;1.35;77.06
73750;SHT30;62058;48.406;-4.514;2022-12-10T04:42:28;1.37;76.96
73750;SHT30;62058;48.406;-4.514;2022-12-10T04:44:53;1.41;76.89
73750;SHT30;62058;48.406;-4.514;2022-12-10T04:47:19;1.41;76.80
73750;SHT30;62058;48.406;-4.514;2022-12-10T04:49:45;1.44;76.63
73750;SHT30;62058;48.406;-4.514;2022-12-10T04:52:13;1.44;76.73
73750;SHT30;62058;48.406;-4.514;2022-12-10T04:54:40;1.47;76.64
73750;SHT30;62058;48.406;-4.514;2022-12-10T04:57:06;1.45;76.49
73750;SHT30;62058;48.406;-4.514;2022-12-10T04:59:32;1.48;76.31
73750;SHT30;62058;48.406;-4.514;2022-12-10T05:01:57;1.48;76.32
73750;SHT30;62058;48.406;-4.514;2022-12-10T05:04:23;1.49;76.34
73750;SHT30;62058;48.406;-4.514;2022-12-10T05:06:48;1.49;76.34
73750;SHT30;62058;48.406;-4.514;2022-12-10T05:09:15;1.47;76.23
73750;SHT30;62058;48.406;-4.514;2022-12-10T05:11:41;1.48;76.11
73750;SHT30;62058;48.406;-4.514;2022-12-10T05:14:08;1.49;75.93
73750;SHT30;62058;48.406;-4.514;2022-12-10T05:16:33;1.48;76.02
73750;SHT30;62058;48.406;-4.514;2022-12-10T05:18:59;1.48;75.87
73750;SHT30;62058;48.406;-4.514;2022-12-10T05:21:27;1.45;75.86
73750;SHT30;62058;48.406;-4.514;2022-12-10T05:24:12;1.47;76.03
73750;SHT30;62058;48.406;-4.514;2022-12-10T05:26:38;1.47;76.22
73750;SHT30;62058;48.406;-4.514;2022-12-10T05:29:03;1.47;76.03
73750;SHT30;62058;48.406;-4.514;2022-12-10T05:31:30;1.42;76.17
73750;SHT30;62058;48.406;-4.514;2022-12-10T05:33:56;1.41;76.08
73750;SHT30;62058;48.406;-4.514;2022-12-10T05:36:25;1.39;76.24
73750;SHT30;62058;48.406;-4.514;2022-12-10T05:38:51;1.41;76.43
73750;SHT30;62058;48.406;-4.514;2022-12-10T05:41:19;1.38;76.24
73750;SHT30;62058;48.406;-4.514;2022-12-10T05:43:46;1.32;76.35
73750;SHT30;62058;48.406;-4.514;2022-12-10T05:46:14;1.28;76.40
73750;SHT30;62058;48.406;-4.514;2022-12-10T05:48:40;1.27;76.51
73750;SHT30;62058;48.406;-4.514;2022-12-10T05:51:11;1.27;76.98
73750;SHT30;62058;48.406;-4.514;2022-12-10T05:53:37;1.30;76.69
73750;SHT30;62058;48.406;-4.514;2022-12-10T05:56:06;1.27;77.03
73750;SHT30;62058;48.406;-4.514;2022-12-10T05:58:32;1.28;77.20
73750;SHT30;62058;48.406;-4.514;2022-12-10T06:00:58;1.27;77.20
73750;SHT30;62058;48.406;-4.514;2022-12-10T06:03:26;1.26;77.09
73750;SHT30;62058;48.406;-4.514;2022-12-10T06:05:51;1.27;76.89
73750;SHT30;62058;48.406;-4.514;2022-12-10T06:08:17;1.26;76.86
73750;SHT30;62058;48.406;-4.514;2022-12-10T06:10:42;1.24;76.97
73750;SHT30;62058;48.406;-4.514;2022-12-10T06:13:08;1.23;77.16
73750;SHT30;62058;48.406;-4.514;2022-12-10T06:15:33;1.21;77.05
73750;SHT30;62058;48.406;-4.514;2022-12-10T06:17:59;1.23;77.47
73750;SHT30;62058;48.406;-4.514;2022-12-10T06:20:25;1.23;77.29
73750;SHT30;62058;48.406;-4.514;2022-12-10T06:22:51;1.17;77.59
73750;SHT30;62058;48.406;-4.514;2022-12-10T06:25:17;1.16;77.83
73750;SHT30;62058;48.406;-4.514;2022-12-10T06:27:43;1.14;77.48
73750;SHT30;62058;48.406;-4.514;2022-12-10T06:30:09;1.14;77.05
73750;SHT30;62058;48.406;-4.514;2022-12-10T06:32:35;1.16;76.79
73750;SHT30;62058;48.406;-4.514;2022-12-10T06:35:01;1.18;76.80
73750;SHT30;62058;48.406;-4.514;2022-12-10T06:37:27;1.14;76.79
73750;SHT30;62058;48.406;-4.514;2022-12-10T06:39:52;1.13;76.95
73750;SHT30;62058;48.406;-4.514;2022-12-10T06:42:19;1.13;77.04
73750;SHT30;62058;48.406;-4.514;2022-12-10T06:44:44;1.11;77.27
73750;SHT30;62058;48.406;-4.514;2022-12-10T06:47:10;1.08;77.33
73750;SHT30;62058;48.406;-4.514;2022-12-10T06:49:36;1.08;77.43
73750;SHT30;62058;48.406;-4.514;2022-12-10T06:52:02;1.10;77.06
73750;SHT30;62058;48.406;-4.514;2022-12-10T06:54:28;1.11;77.02
73750;SHT30;62058;48.406;-4.514;2022-12-10T06:56:54;1.13;76.59
73750;SHT30;62058;48.406;-4.514;2022-12-10T06:59:19;1.13;76.46
73750;SHT30;62058;48.406;-4.514;2022-12-10T07:01:46;1.11;76.41
73750;SHT30;62058;48.406;-4.514;2022-12-10T07:04:11;1.13;76.49
73750;SHT30;62058;48.406;-4.514;2022-12-10T07:06:37;1.16;76.39
73750;SHT30;62058;48.406;-4.514;2022-12-10T07:09:02;1.17;76.42
73750;SHT30;62058;48.406;-4.514;2022-12-10T07:11:28;1.18;76.49
73750;SHT30;62058;48.406;-4.514;2022-12-10T07:13:56;1.23;76.76
73750;SHT30;62058;48.406;-4.514;2022-12-10T07:16:24;1.21;76.74
73750;SHT30;62058;48.406;-4.514;2022-12-10T07:18:50;1.23;76.98
73750;SHT30;62058;48.406;-4.514;2022-12-10T07:21:25;1.24;77.27
73750;SHT30;62058;48.406;-4.514;2022-12-10T07:23:51;1.28;76.86
73750;SHT30;62058;48.406;-4.514;2022-12-10T07:26:19;1.30;76.66
73750;SHT30;62058;48.406;-4.514;2022-12-10T07:28:45;1.31;76.76
73750;SHT30;62058;48.406;-4.514;2022-12-10T07:31:11;1.32;76.54
73750;SHT30;62058;48.406;-4.514;2022-12-10T07:33:36;1.34;76.31
73750;SHT30;62058;48.406;-4.514;2022-12-10T07:36:07;1.31;76.20
73750;SHT30;62058;48.406;-4.514;2022-12-10T07:38:33;1.31;76.46
73750;SHT30;62058;48.406;-4.514;2022-12-10T07:41:05;1.31;76.46
73750;SHT30;62058;48.406;-4.514;2022-12-10T07:43:34;1.27;76.67
73750;SHT30;62058;48.406;-4.514;2022-12-10T07:46:08;1.28;76.95
73750;SHT30;62058;48.406;-4.514;2022-12-10T07:48:34;1.30;77.00
73750;SHT30;62058;48.406;-4.514;2022-12-10T07:51:00;1.31;77.50
73750;SHT30;62058;48.406;-4.514;2022-12-10T07:53:25;1.34;77.65
73750;SHT30;62058;48.406;-4.514;2022-12-10T07:55:51;1.32;77.15
73750;SHT30;62058;48.406;-4.514;2022-12-10T07:58:16;1.32;77.46
73750;SHT30;62058;48.406;-4.514;2022-12-10T08:00:42;1.35;77.36
73750;SHT30;62058;48.406;-4.514;2022-12-10T08:03:07;1.37;77.30
73750;SHT30;62058;48.406;-4.514;2022-12-10T08:05:32;1.37;76.89
73750;SHT30;62058;48.406;-4.514;2022-12-10T08:07:58;1.39;76.83
73750;SHT30;62058;48.406;-4.514;2022-12-10T08:10:23;1.42;76.57
73750;SHT30;62058;48.406;-4.514;2022-12-10T08:12:48;1.42;76.85
73750;SHT30;62058;48.406;-4.514;2022-12-10T08:15:14;1.51;76.93
73750;SHT30;62058;48.406;-4.514;2022-12-10T08:17:39;1.61;76.94
73750;SHT30;62058;48.406;-4.514;2022-12-10T08:20:05;1.68;76.89
73750;SHT30;62058;48.406;-4.514;2022-12-10T08:22:31;1.73;76.35
73750;SHT30;62058;48.406;-4.514;2022-12-10T08:24:58;1.78;76.30
73750;SHT30;62058;48.406;-4.514;2022-12-10T08:27:23;1.82;76.20
73750;SHT30;62058;48.406;-4.514;2022-12-10T08:29:48;1.86;75.46
73750;SHT30;62058;48.406;-4.514;2022-12-10T08:32:14;1.87;75.56
73750;SHT30;62058;48.406;-4.514;2022-12-10T08:34:39;1.92;74.89
73750;SHT30;62058;48.406;-4.514;2022-12-10T08:37:05;1.98;74.80
73750;SHT30;62058;48.406;-4.514;2022-12-10T08:39:30;2.03;74.56
73750;SHT30;62058;48.406;-4.514;2022-12-10T08:41:55;2.13;74.52
73750;SHT30;62058;48.406;-4.514;2022-12-10T08:44:21;2.17;74.27
73750;SHT30;62058;48.406;-4.514;2022-12-10T08:46:46;2.26;75.36
73750;SHT30;62058;48.406;-4.514;2022-12-10T08:49:12;2.37;75.33
73750;SHT30;62058;48.406;-4.514;2022-12-10T08:51:37;2.51;76.82
73750;SHT30;62058;48.406;-4.514;2022-12-10T08:54:03;2.60;75.59
73750;SHT30;62058;48.406;-4.514;2022-12-10T08:56:29;2.73;75.79
73750;SHT30;62058;48.406;-4.514;2022-12-10T08:58:54;2.85;76.08
73750;SHT30;62058;48.406;-4.514;2022-12-10T09:01:20;2.98;76.60
73750;SHT30;62058;48.406;-4.514;2022-12-10T09:03:45;3.04;76.52
73750;SHT30;62058;48.406;-4.514;2022-12-10T09:06:14;3.19;77.88
73750;SHT30;62058;48.406;-4.514;2022-12-10T09:08:39;3.30;77.53
73750;SHT30;62058;48.406;-4.514;2022-12-10T09:11:11;3.40;77.48
73750;SHT30;62058;48.406;-4.514;2022-12-10T09:13:36;3.52;76.81
73750;SHT30;62058;48.406;-4.514;2022-12-10T09:16:02;3.66;76.90
73750;SHT30;62058;48.406;-4.514;2022-12-10T09:18:28;3.77;76.87
73750;SHT30;62058;48.406;-4.514;2022-12-10T09:20:53;3.93;77.14
73750;SHT30;62058;48.406;-4.514;2022-12-10T09:23:18;4.08;75.89
73750;SHT30;62058;48.406;-4.514;2022-12-10T09:25:44;4.24;76.25
73750;SHT30;62058;48.406;-4.514;2022-12-10T09:28:09;4.41;75.46
73750;SHT30;62058;48.406;-4.514;2022-12-10T09:30:35;4.52;75.35
73750;SHT30;62058;48.406;-4.514;2022-12-10T09:33:00;4.65;74.93
73750;SHT30;62058;48.406;-4.514;2022-12-10T09:35:25;4.75;75.00
73750;SHT30;62058;48.406;-4.514;2022-12-10T09:37:51;4.87;74.76
73750;SHT30;62058;48.406;-4.514;2022-12-10T09:40:18;4.95;74.67
73750;SHT30;62058;48.406;-4.514;2022-12-10T09:46:02;5.13;74.58
73750;SHT30;62058;48.406;-4.514;2022-12-10T09:48:47;5.20;74.36
73750;SHT30;62058;48.406;-4.514;2022-12-10T09:51:23;5.28;74.31
73750;SHT30;62058;48.406;-4.514;2022-12-10T09:53:51;5.41;74.29
73750;SHT30;62058;48.406;-4.514;2022-12-10T09:56:26;5.58;73.86
73750;SHT30;62058;48.406;-4.514;2022-12-10T09:58:53;5.65;73.80
73750;SHT30;62058;48.406;-4.514;2022-12-10T10:01:22;5.69;73.36
73750;SHT30;62058;48.406;-4.514;2022-12-10T10:03:48;5.79;73.64
73750;SHT30;62058;48.406;-4.514;2022-12-10T10:06:14;5.88;73.16
73750;SHT30;62058;48.406;-4.514;2022-12-10T10:08:46;5.95;72.97
73750;SHT30;62058;48.406;-4.514;2022-12-10T10:11:19;5.99;73.27
73750;SHT30;62058;48.406;-4.514;2022-12-10T10:13:50;6.05;72.32
73750;SHT30;62058;48.406;-4.514;2022-12-10T10:16:36;6.15;72.28
73750;SHT30;62058;48.406;-4.514;2022-12-10T10:19:03;6.21;71.87
73750;SHT30;62058;48.406;-4.514;2022-12-10T10:21:34;6.29;71.77
73750;SHT30;62058;48.406;-4.514;2022-12-10T10:24:01;6.37;72.25
73750;SHT30;62058;48.406;-4.514;2022-12-10T10:26:27;6.43;71.62
73750;SHT30;62058;48.406;-4.514;2022-12-10T10:29:00;6.47;71.53
73750;SHT30;62058;48.406;-4.514;2022-12-10T10:31:29;6.54;71.49
73750;SHT30;62058;48.406;-4.514;2022-12-10T10:33:57;6.58;71.79
73750;SHT30;62058;48.406;-4.514;2022-12-10T10:36:32;6.66;71.07
73750;SHT30;62058;48.406;-4.514;2022-12-10T10:39:10;6.72;71.58
73750;SHT30;62058;48.406;-4.514;2022-12-10T10:41:38;6.76;70.49
73750;SHT30;62058;48.406;-4.514;2022-12-10T10:44:15;6.81;71.18
73750;SHT30;62058;48.406;-4.514;2022-12-10T10:46:42;6.85;70.81
73750;SHT30;62058;48.406;-4.514;2022-12-10T10:49:26;6.87;70.37
73750;SHT30;62058;48.406;-4.514;2022-12-10T10:51:58;6.97;70.72
73750;SHT30;62058;48.406;-4.514;2022-12-10T10:54:44;6.98;70.50
73750;SHT30;62058;48.406;-4.514;2022-12-10T10:57:50;7.05;70.30
73750;SHT30;62058;48.406;-4.514;2022-12-10T11:00:20;7.11;70.41
73750;SHT30;62058;48.406;-4.514;2022-12-10T11:02:49;7.15;70.57
73750;SHT30;62058;48.406;-4.514;2022-12-10T11:05:24;7.21;68.29
73750;SHT30;62058;48.406;-4.514;2022-12-10T11:08:01;7.25;68.59
73750;SHT30;62058;48.406;-4.514;2022-12-10T11:10:28;7.28;69.35
73750;SHT30;62058;48.406;-4.514;2022-12-10T11:13:15;7.34;69.34
73750;SHT30;62058;48.406;-4.514;2022-12-10T11:15:43;7.38;69.56
73750;SHT30;62058;48.406;-4.514;2022-12-10T11:18:35;7.44;68.91
73750;SHT30;62058;48.406;-4.514;2022-12-10T11:23:40;7.52;69.56
73750;SHT30;62058;48.406;-4.514;2022-12-10T11:28:47;7.68;68.59
73750;SHT30;62058;48.406;-4.514;2022-12-10T11:34:13;7.93;69.50
73750;SHT30;62058;48.406;-4.514;2022-12-10T11:36:52;8.09;68.72
73750;SHT30;62058;48.406;-4.514;2022-12-10T11:45:26;8.19;68.10
73750;SHT30;62058;48.406;-4.514;2022-12-10T11:48:02;8.13;67.72
73750;SHT30;62058;48.406;-4.514;2022-12-10T11:50:52;8.17;66.12
73750;SHT30;62058;48.406;-4.514;2022-12-10T11:56:22;8.51;66.08
73750;SHT30;62058;48.406;-4.514;2022-12-10T12:17:55;9.46;63.99
73750;SHT30;62058;48.406;-4.514;2022-12-10T12:20:34;9.32;63.72
73750;SHT30;62058;48.406;-4.514;2022-12-10T12:23:15;9.18;62.92
73750;SHT30;62058;48.406;-4.514;2022-12-10T12:25:48;9.11;62.89
73750;SHT30;62058;48.406;-4.514;2022-12-10T12:28:26;9.02;63.42
73750;SHT30;62058;48.406;-4.514;2022-12-10T12:31:03;8.95;63.52
73750;SHT30;62058;48.406;-4.514;2022-12-10T12:36:11;8.82;63.99
73750;SHT30;62058;48.406;-4.514;2022-12-10T12:38:53;8.72;63.81
73750;SHT30;62058;48.406;-4.514;2022-12-10T12:41:39;8.65;63.35
73750;SHT30;62058;48.406;-4.514;2022-12-10T12:44:21;8.61;64.10
73750;SHT30;62058;48.406;-4.514;2022-12-10T12:46:50;8.60;64.02
73750;SHT30;62058;48.406;-4.514;2022-12-10T12:49:29;8.58;63.71
73750;SHT30;62058;48.406;-4.514;2022-12-10T12:54:27;9.01;64.14
73750;SHT30;62058;48.406;-4.514;2022-12-10T12:57:07;9.25;63.01
73750;SHT30;62058;48.406;-4.514;2022-12-10T13:04:44;9.35;62.89
73750;SHT30;62058;48.406;-4.514;2022-12-10T13:09:52;9.93;62.67
73750;SHT30;62058;48.406;-4.514;2022-12-10T13:20:50;13.98;53.27
73750;SHT30;62058;48.406;-4.514;2022-12-10T13:42:20;19.16;44.22
73750;SHT30;62058;48.406;-4.514;2022-12-10T13:44:59;19.60;39.72
73750;SHT30;62058;48.406;-4.514;2022-12-10T13:50:55;19.19;38.54
73750;SHT30;62058;48.406;-4.514;2022-12-10T13:53:13;18.52;45.95
73750;SHT30;62058;48.406;-4.514;2022-12-10T14:03:42;17.97;41.56
73750;SHT30;62058;48.406;-4.514;2022-12-10T14:06:20;17.91;42.93
73750;SHT30;62058;48.406;-4.514;2022-12-10T14:11:27;18.47;42.66
73750;SHT30;62058;48.406;-4.514;2022-12-10T14:13:56;17.66;42.52
73750;SHT30;62058;48.406;-4.514;2022-12-10T14:16:28;16.35;46.75
73750;SHT30;62058;48.406;-4.514;2022-12-10T14:19:05;14.95;48.80
73750;SHT30;62058;48.406;-4.514;2022-12-10T14:21:34;14.01;51.22
73750;SHT30;62058;48.406;-4.514;2022-12-10T14:23:59;13.28;52.93
73750;SHT30;62058;48.406;-4.514;2022-12-10T14:26:28;12.59;54.58
73750;SHT30;62058;48.406;-4.514;2022-12-10T14:31:37;11.82;57.48
73750;SHT30;62058;48.406;-4.514;2022-12-10T14:34:07;11.24;59.22
73750;SHT30;62058;48.406;-4.514;2022-12-10T14:36:37;11.06;59.68
73750;SHT30;62058;48.406;-4.514;2022-12-10T14:39:16;10.88;59.76
73750;SHT30;62058;48.406;-4.514;2022-12-10T14:41:42;10.82;60.37
73750;SHT30;62058;48.406;-4.514;2022-12-10T14:44:12;10.71;60.98
73750;SHT30;62058;48.406;-4.514;2022-12-10T14:46:38;10.65;61.51
73750;SHT30;62058;48.406;-4.514;2022-12-10T14:49:04;10.53;62.06
73750;SHT30;62058;48.406;-4.514;2022-12-10T14:51:33;10.42;62.15
73750;SHT30;62058;48.406;-4.514;2022-12-10T14:54:02;10.28;63.09
73750;SHT30;62058;48.406;-4.514;2022-12-10T14:56:34;10.19;62.80
73750;SHT30;62058;48.406;-4.514;2022-12-10T14:59:16;10.11;63.25
73750;SHT30;62058;48.406;-4.514;2022-12-10T15:01:48;10.02;63.91
73750;SHT30;62058;48.406;-4.514;2022-12-10T15:04:17;9.97;64.36
73750;SHT30;62058;48.406;-4.514;2022-12-10T15:06:44;9.91;63.97
73750;SHT30;62058;48.406;-4.514;2022-12-10T15:09:20;9.88;64.19
73750;SHT30;62058;48.406;-4.514;2022-12-10T15:11:58;9.83;63.72
73750;SHT30;62058;48.406;-4.514;2022-12-10T15:14:24;9.77;64.33
73750;SHT30;62058;48.406;-4.514;2022-12-10T15:16:50;9.67;65.90
73750;SHT30;62058;48.406;-4.514;2022-12-10T15:22:20;9.51;67.56
73750;SHT30;62058;48.406;-4.514;2022-12-10T15:24:47;9.29;72.93
73750;SHT30;62058;48.406;-4.514;2022-12-10T15:27:19;8.84;75.56
73750;SHT30;62058;48.406;-4.514;2022-12-10T15:29:44;8.41;89.36
73750;SHT30;62058;48.406;-4.514;2022-12-10T15:32:17;8.14;88.07
73750;SHT30;62058;48.406;-4.514;2022-12-10T15:34:47;7.83;90.24
73750;SHT30;62058;48.406;-4.514;2022-12-10T15:37:23;7.58;90.75
73750;SHT30;62058;48.406;-4.514;2022-12-10T15:39:54;7.51;90.22
73750;SHT30;62058;48.406;-4.514;2022-12-10T15:45:04;7.39;91.98
73750;SHT30;62058;48.406;-4.514;2022-12-10T15:47:33;7.36;91.28
73750;SHT30;62058;48.406;-4.514;2022-12-10T15:50:03;7.27;89.19
73750;SHT30;62058;48.406;-4.514;2022-12-10T15:52:29;7.22;91.26
73750;SHT30;62058;48.406;-4.514;2022-12-10T15:54:56;7.22;89.57
73750;SHT30;62058;48.406;-4.514;2022-12-10T15:57:28;7.19;92.97
73750;SHT30;62058;48.406;-4.514;2022-12-10T15:59:58;7.01;92.71
73750;SHT30;62058;48.406;-4.514;2022-12-10T16:02:37;6.93;90.31
73750;SHT30;62058;48.406;-4.514;2022-12-10T16:07:40;6.79;91.14
73750;SHT30;62058;48.406;-4.514;2022-12-10T16:10:06;6.74;90.33
73750;SHT30;62058;48.406;-4.514;2022-12-10T16:12:34;6.72;90.75
73750;SHT30;62058;48.406;-4.514;2022-12-10T16:15:00;6.64;93.56
73750;SHT30;62058;48.406;-4.514;2022-12-10T16:17:27;6.66;91.27
73750;SHT30;62058;48.406;-4.514;2022-12-10T16:19:56;6.66;91.61
73750;SHT30;62058;48.406;-4.514;2022-12-10T16:22:21;6.60;93.35
73750;SHT30;62058;48.406;-4.514;2022-12-10T16:24:46;6.62;94.98
73750;SHT30;62058;48.406;-4.514;2022-12-10T16:27:13;6.63;95.02
73750;SHT30;62058;48.406;-4.514;2022-12-10T16:29:39;6.62;95.09
73750;SHT30;62058;48.406;-4.514;2022-12-10T16:32:05;6.60;95.27
73750;SHT30;62058;48.406;-4.514;2022-12-10T16:34:33;6.63;95.49
73750;SHT30;62058;48.406;-4.514;2022-12-10T16:36:58;6.63;95.43
73750;SHT30;62058;48.406;-4.514;2022-12-10T16:39:23;6.57;94.67
73750;SHT30;62058;48.406;-4.514;2022-12-10T16:41:52;6.53;95.10
73750;SHT30;62058;48.406;-4.514;2022-12-10T16:44:18;6.50;95.34
73750;SHT30;62058;48.406;-4.514;2022-12-10T16:46:44;6.44;94.79
73750;SHT30;62058;48.406;-4.514;2022-12-10T16:49:09;6.36;95.08
73750;SHT30;62058;48.406;-4.514;2022-12-10T16:51:35;6.30;94.81
73750;SHT30;62058;48.406;-4.514;2022-12-10T16:54:00;6.22;94.89
73750;SHT30;62058;48.406;-4.514;2022-12-10T16:56:26;6.16;94.78
73750;SHT30;62058;48.406;-4.514;2022-12-10T16:58:51;6.09;95.16
73750;SHT30;62058;48.406;-4.514;2022-12-10T17:01:22;6.02;95.42
73750;SHT30;62058;48.406;-4.514;2022-12-10T17:03:49;6.01;95.42
73750;SHT30;62058;48.406;-4.514;2022-12-10T17:06:15;5.97;95.62
73750;SHT30;62058;48.406;-4.514;2022-12-10T17:08:41;5.91;95.16
73750;SHT30;62058;48.406;-4.514;2022-12-10T17:13:59;5.82;95.73
73750;SHT30;62058;48.406;-4.514;2022-12-10T17:16:25;5.78;95.91
73750;SHT30;62058;48.406;-4.514;2022-12-10T17:18:50;5.79;96.08
73750;SHT30;62058;48.406;-4.514;2022-12-10T17:21:15;5.79;95.66
73750;SHT30;62058;48.406;-4.514;2022-12-10T17:23:41;5.79;96.00
73750;SHT30;62058;48.406;-4.514;2022-12-10T17:26:08;5.79;95.96
73750;SHT30;62058;48.406;-4.514;2022-12-10T17:28:34;5.74;95.65
73750;SHT30;62058;48.406;-4.514;2022-12-10T17:31:00;5.72;94.52
73750;SHT30;62058;48.406;-4.514;2022-12-10T17:33:25;5.65;93.30
73750;SHT30;62058;48.406;-4.514;2022-12-10T17:35:51;5.60;94.85
73750;SHT30;62058;48.406;-4.514;2022-12-10T17:38:23;5.52;95.69
73750;SHT30;62058;48.406;-4.514;2022-12-10T17:40:50;5.44;95.70